createdAt,value
2023-03-05T00:00:03.309Z,43.90
2023-03-05T00:02:31.295Z,44.00
2023-03-05T00:04:59.209Z,43.90
2023-03-05T00:07:27.291Z,44.00
2023-03-05T00:09:57.339Z,43.90
2023-03-05T00:12:25.543Z,43.80
2023-03-05T00:14:53.407Z,43.90
2023-03-05T00:17:21.190Z,43.90
2023-03-05T00:19:48.866Z,43.80
2023-03-05T00:22:16.529Z,43.80
2023-03-05T00:24:44.236Z,43.90
2023-03-05T00:27:13.478Z,43.90
2023-03-05T00:29:41.980Z,44.00
2023-03-05T00:32:09.898Z,43.90
2023-03-05T00:34:38.177Z,43.90
2023-03-05T00:37:06.256Z,43.90
2023-03-05T00:39:34.532Z,43.80
2023-03-05T00:42:02.587Z,43.90
2023-03-05T00:44:32.181Z,43.90
2023-03-05T00:47:00.485Z,43.80
2023-03-05T00:49:28.349Z,43.80
2023-03-05T00:51:56.693Z,43.80
2023-03-05T00:54:24.817Z,43.80
2023-03-05T00:56:52.897Z,43.90
2023-03-05T00:59:20.829Z,43.90
2023-03-05T01:01:50.274Z,44.00
2023-03-05T01:04:18.364Z,44.10
2023-03-05T01:06:46.799Z,44.30
2023-03-05T01:09:14.681Z,44.30
2023-03-05T01:11:45.686Z,44.50
2023-03-05T01:14:13.556Z,44.60
2023-03-05T01:16:41.438Z,44.70
2023-03-05T01:19:10.901Z,44.70
2023-03-05T01:21:38.765Z,45.00
2023-03-05T01:24:07.367Z,45.00
2023-03-05T01:26:35.261Z,45.10
2023-03-05T01:29:03.706Z,45.30
2023-03-05T01:31:31.641Z,45.30
2023-03-05T01:34:00.558Z,45.30
2023-03-05T01:36:30.361Z,45.40
2023-03-05T01:38:58.549Z,45.50
2023-03-05T01:41:26.817Z,45.50
2023-03-05T01:43:54.920Z,45.60
2023-03-05T01:46:31.201Z,45.50
2023-03-05T01:49:11.524Z,45.70
2023-03-05T01:51:42.948Z,45.90
2023-03-05T01:54:11.455Z,46.00
2023-03-05T01:56:39.346Z,46.00
2023-03-05T01:59:07.237Z,46.00
2023-03-05T02:01:38.112Z,46.10
2023-03-05T02:04:06.057Z,46.10
2023-03-05T02:06:34.362Z,46.20
2023-03-05T02:09:03.718Z,46.20
2023-03-05T02:11:32.029Z,46.30
2023-03-05T02:13:59.730Z,46.30
2023-03-05T02:16:27.541Z,46.40
2023-03-05T02:18:55.243Z,46.40
2023-03-05T02:21:30.513Z,46.40
2023-03-05T02:23:58.427Z,46.40
2023-03-05T02:26:26.264Z,46.50
2023-03-05T02:28:56.384Z,46.60
2023-03-05T02:31:25.121Z,46.60
2023-03-05T02:33:54.357Z,46.60
2023-03-05T02:36:22.237Z,46.80
2023-03-05T02:38:52.922Z,46.70
2023-03-05T02:41:20.891Z,46.80
2023-03-05T02:43:49.118Z,46.90
2023-03-05T02:46:16.928Z,46.80
2023-03-05T02:48:44.736Z,46.90
2023-03-05T02:51:12.394Z,47.00
2023-03-05T02:53:40.631Z,46.90
2023-03-05T02:56:09.645Z,47.00
2023-03-05T02:58:37.665Z,47.10
2023-03-05T03:01:05.774Z,47.00
2023-03-05T03:03:34.169Z,47.10
2023-03-05T03:06:02.080Z,47.20
2023-03-05T03:08:29.908Z,47.20
2023-03-05T03:10:57.803Z,47.20
2023-03-05T03:13:27.248Z,47.10
2023-03-05T03:16:03.135Z,47.30
2023-03-05T03:18:31.032Z,47.10
2023-03-05T03:20:58.864Z,47.30
2023-03-05T03:23:26.782Z,47.30
2023-03-05T03:25:54.478Z,47.40
2023-03-05T03:28:22.182Z,47.40
2023-03-05T03:30:51.324Z,47.40
2023-03-05T03:33:19.036Z,47.40
2023-03-05T03:35:46.844Z,47.40
2023-03-05T03:38:14.615Z,47.50
2023-03-05T03:40:42.829Z,47.50
2023-03-05T03:43:10.510Z,47.60
2023-03-05T03:45:42.095Z,47.60
2023-03-05T03:48:11.429Z,47.60
2023-03-05T03:50:40.055Z,47.70
2023-03-05T03:53:07.895Z,47.50
2023-03-05T03:55:35.713Z,47.70
2023-03-05T03:58:04.121Z,47.80
2023-03-05T04:00:31.900Z,48.30
2023-03-05T04:02:59.563Z,47.70
2023-03-05T04:05:28.834Z,47.80
2023-03-05T04:07:58.475Z,47.70
2023-03-05T04:10:26.480Z,47.90
2023-03-05T04:12:54.672Z,47.80
2023-03-05T04:15:22.598Z,47.90
2023-03-05T04:17:50.327Z,47.90
2023-03-05T04:20:18.634Z,47.70
2023-03-05T04:22:47.660Z,47.90
2023-03-05T04:25:15.508Z,47.90
2023-03-05T04:27:43.558Z,48.00
2023-03-05T04:30:14.508Z,47.90
2023-03-05T04:32:42.554Z,48.00
2023-03-05T04:35:10.376Z,48.10
2023-03-05T04:37:38.108Z,48.00
2023-03-05T04:40:09.306Z,48.00
2023-03-05T04:42:37.177Z,48.20
2023-03-05T04:45:07.099Z,48.20
2023-03-05T04:47:35.065Z,48.10
2023-03-05T04:50:03.919Z,48.20
2023-03-05T04:52:33.494Z,48.10
2023-03-05T04:55:01.332Z,48.30
2023-03-05T04:57:30.744Z,48.30
2023-03-05T04:59:58.623Z,48.20
2023-03-05T05:02:26.399Z,48.20
2023-03-05T05:04:54.490Z,48.20
2023-03-05T05:07:22.266Z,48.20
2023-03-05T05:09:50.049Z,48.30
2023-03-05T05:12:17.810Z,48.40
2023-03-05T05:14:46.895Z,48.50
2023-03-05T05:17:14.702Z,48.40
2023-03-05T05:19:43.143Z,48.40
2023-03-05T05:22:11.108Z,48.30
2023-03-05T05:24:39.082Z,48.40
2023-03-05T05:27:07.683Z,48.30
2023-03-05T05:29:35.593Z,48.40
2023-03-05T05:32:04.970Z,48.40
2023-03-05T05:34:33.012Z,48.30
2023-03-05T05:37:00.950Z,48.30
2023-03-05T05:39:28.947Z,48.50
2023-03-05T05:41:56.840Z,48.30
2023-03-05T05:44:24.536Z,48.50
2023-03-05T05:46:52.292Z,48.40
2023-03-05T05:49:21.361Z,48.50
2023-03-05T05:51:49.113Z,48.50
2023-03-05T05:54:16.989Z,48.50
2023-03-05T05:56:45.141Z,48.50
2023-03-05T05:59:13.175Z,48.60
2023-03-05T06:01:41.620Z,48.60
2023-03-05T06:04:09.646Z,48.50
2023-03-05T06:06:38.839Z,48.60
2023-03-05T06:09:06.763Z,48.60
2023-03-05T06:11:34.608Z,48.50
2023-03-05T06:14:03.797Z,48.50
2023-03-05T06:16:31.992Z,48.50
2023-03-05T06:19:01.251Z,48.50
2023-03-05T06:21:29.898Z,48.50
2023-03-05T06:23:59.922Z,48.60
2023-03-05T06:26:27.669Z,48.60
2023-03-05T06:28:55.732Z,48.80
2023-03-05T06:31:25.505Z,48.70
2023-03-05T06:33:53.548Z,48.70
2023-03-05T06:36:21.863Z,48.60
2023-03-05T06:38:51.543Z,48.80
2023-03-05T06:41:22.905Z,48.80
2023-03-05T06:43:51.024Z,48.80
2023-03-05T06:46:19.726Z,48.70
2023-03-05T06:48:47.747Z,48.80
2023-03-05T06:51:16.131Z,48.80
2023-03-05T06:53:43.885Z,48.80
2023-03-05T06:56:13.853Z,48.80
2023-03-05T06:58:43.056Z,48.80
2023-03-05T07:01:10.792Z,48.70
2023-03-05T07:03:38.509Z,48.90
2023-03-05T07:06:06.898Z,48.80
2023-03-05T07:08:34.559Z,48.80
2023-03-05T07:11:02.307Z,48.80
2023-03-05T07:13:30.051Z,48.80
2023-03-05T07:15:59.510Z,48.80
2023-03-05T07:18:27.275Z,48.90
2023-03-05T07:20:55.443Z,48.70
2023-03-05T07:23:23.112Z,48.70
2023-03-05T07:25:50.864Z,48.80
2023-03-05T07:28:18.806Z,48.80
2023-03-05T07:30:46.736Z,48.60
2023-03-05T07:33:16.466Z,48.70
2023-03-05T07:35:44.376Z,48.70
2023-03-05T07:38:12.294Z,48.70
2023-03-05T07:40:40.073Z,48.60
2023-03-05T07:43:07.972Z,48.70
2023-03-05T07:45:36.014Z,48.60
2023-03-05T07:48:03.930Z,48.60
2023-03-05T07:50:33.655Z,48.70
2023-03-05T07:53:01.515Z,48.80
2023-03-05T07:55:29.204Z,48.80
2023-03-05T07:57:56.928Z,48.70
2023-03-05T08:00:24.696Z,48.80
2023-03-05T08:02:52.433Z,48.70
2023-03-05T08:05:20.129Z,48.70
2023-03-05T08:07:49.486Z,48.70
2023-03-05T08:10:17.361Z,48.80
2023-03-05T08:12:45.119Z,48.80
2023-03-05T08:15:13.013Z,48.90
2023-03-05T08:17:40.927Z,48.70
2023-03-05T08:20:11.521Z,48.70
2023-03-05T08:22:39.336Z,48.60
2023-03-05T08:25:09.451Z,48.70
2023-03-05T08:27:40.065Z,48.70
2023-03-05T08:30:11.095Z,48.70
2023-03-05T08:32:38.894Z,48.90
2023-03-05T08:35:07.691Z,48.90
2023-03-05T08:37:35.356Z,49.10
2023-03-05T08:40:03.093Z,49.00
2023-03-05T08:42:32.090Z,49.10
2023-03-05T08:45:00.061Z,48.90
2023-03-05T08:47:28.026Z,48.80
2023-03-05T08:49:57.903Z,48.70
2023-03-05T08:52:27.328Z,48.80
2023-03-05T08:54:55.653Z,48.50
2023-03-05T08:57:23.422Z,48.50
2023-03-05T08:59:52.518Z,48.40
2023-03-05T09:02:20.215Z,48.30
2023-03-05T09:04:47.916Z,48.30
2023-03-05T09:07:15.586Z,48.30
2023-03-05T09:09:43.245Z,48.40
2023-03-05T09:12:13.258Z,48.40
2023-03-05T09:14:40.961Z,48.40
2023-03-05T09:17:09.975Z,48.40
2023-03-05T09:19:37.642Z,48.40
2023-03-05T09:22:05.570Z,48.40
2023-03-05T09:24:33.280Z,48.40
2023-03-05T09:27:01.389Z,48.50
2023-03-05T09:29:30.852Z,48.60
2023-03-05T09:31:59.026Z,48.70
2023-03-05T09:34:28.130Z,48.50
2023-03-05T09:36:55.825Z,48.60
2023-03-05T09:39:23.789Z,48.50
2023-03-05T09:42:10.490Z,48.60
2023-03-05T09:44:42.872Z,48.80
2023-03-05T09:47:26.662Z,48.90
2023-03-05T09:49:59.532Z,48.90
2023-03-05T09:52:34.090Z,48.70
2023-03-05T09:55:01.777Z,48.60
2023-03-05T09:57:32.286Z,48.40
2023-03-05T10:00:00.874Z,48.40
2023-03-05T10:02:30.313Z,48.20
2023-03-05T10:05:03.791Z,48.20
2023-03-05T10:07:32.227Z,48.10
2023-03-05T10:10:01.709Z,48.10
2023-03-05T10:12:38.995Z,45.90
2023-03-05T10:15:13.915Z,40.90
2023-03-05T10:17:53.111Z,41.20
2023-03-05T10:20:32.858Z,41.70
2023-03-05T10:23:14.799Z,43.20
2023-03-05T10:25:52.605Z,44.50
2023-03-05T10:28:22.927Z,44.80
2023-03-05T10:30:58.801Z,47.10
2023-03-05T10:33:32.183Z,44.50
2023-03-05T10:36:22.273Z,43.60
2023-03-05T10:39:09.662Z,42.50
2023-03-05T10:41:40.753Z,41.70
2023-03-05T10:44:12.216Z,41.40
2023-03-05T10:46:40.475Z,41.60
2023-03-05T10:49:15.968Z,41.10
2023-03-05T10:51:49.833Z,40.90
2023-03-05T10:54:20.310Z,40.80
2023-03-05T10:56:48.358Z,40.80
2023-03-05T10:59:16.241Z,40.60
2023-03-05T11:01:44.145Z,40.60
2023-03-05T11:04:27.822Z,40.90
2023-03-05T11:06:57.161Z,40.60
2023-03-05T11:09:29.058Z,40.60
2023-03-05T11:12:05.633Z,40.90
2023-03-05T11:14:34.482Z,41.00
2023-03-05T11:17:02.791Z,41.30
2023-03-05T11:19:33.437Z,41.50
2023-03-05T11:22:15.712Z,41.60
2023-03-05T11:24:44.193Z,41.90
2023-03-05T11:27:23.812Z,42.40
2023-03-05T11:29:51.756Z,42.10
2023-03-05T11:32:22.606Z,42.30
2023-03-05T11:34:50.845Z,42.40
2023-03-05T11:37:25.721Z,41.80
2023-03-05T11:40:15.420Z,40.60
2023-03-05T11:42:43.144Z,37.60
2023-03-05T11:45:16.463Z,37.40
2023-03-05T11:47:45.668Z,37.40
2023-03-05T11:50:18.121Z,37.60
2023-03-05T11:52:48.473Z,37.40
2023-03-05T11:55:17.130Z,36.80
2023-03-05T11:57:46.857Z,35.60
2023-03-05T12:00:16.172Z,33.00
2023-03-05T12:02:44.115Z,32.60
2023-03-05T12:05:15.412Z,33.00
2023-03-05T12:07:45.851Z,34.40
2023-03-05T12:10:17.622Z,32.50
2023-03-05T12:12:47.581Z,33.40
2023-03-05T12:15:32.134Z,34.30
2023-03-05T12:18:06.731Z,35.50
2023-03-05T12:20:37.687Z,36.40
2023-03-05T12:23:05.658Z,37.30
2023-03-05T12:25:35.901Z,38.30
2023-03-05T12:28:05.571Z,38.60
2023-03-05T12:30:56.942Z,39.00
2023-03-05T12:33:35.443Z,40.00
2023-03-05T12:36:38.516Z,41.80
2023-03-05T12:39:52.857Z,37.90
2023-03-05T12:42:50.546Z,34.50
2023-03-05T12:45:28.524Z,32.20
2023-03-05T12:48:29.256Z,31.60
2023-03-05T12:50:59.656Z,30.20
2023-03-05T12:53:27.769Z,29.60
2023-03-05T12:56:01.561Z,30.60
2023-03-05T12:58:38.907Z,29.80
2023-03-05T13:01:13.654Z,30.80
2023-03-05T13:03:45.129Z,29.20
2023-03-05T13:06:25.272Z,30.40
2023-03-05T13:08:58.249Z,32.20
2023-03-05T13:11:26.177Z,34.30
2023-03-05T13:13:55.700Z,34.80
2023-03-05T13:16:24.606Z,35.70
2023-03-05T13:18:52.887Z,35.20
2023-03-05T13:21:21.570Z,36.40
2023-03-05T13:24:07.161Z,38.20
2023-03-05T13:26:38.627Z,38.10
2023-03-05T13:29:21.898Z,37.90
2023-03-05T13:32:08.829Z,39.50
2023-03-05T13:34:47.042Z,39.40
2023-03-05T13:37:17.927Z,39.80
2023-03-05T13:39:49.797Z,39.20
2023-03-05T13:42:18.910Z,39.60
2023-03-05T13:45:14.656Z,39.80
2023-03-05T14:01:48.442Z,40.60
2023-03-05T14:04:21.782Z,40.90
2023-03-05T14:06:51.463Z,41.40
2023-03-05T14:09:29.564Z,41.00
2023-03-05T14:12:06.075Z,41.70
2023-03-05T14:14:40.197Z,41.20
2023-03-05T14:17:47.514Z,41.50
2023-03-05T14:20:57.515Z,41.90
2023-03-05T14:37:19.190Z,42.80
2023-03-05T15:23:36.441Z,42.90
2023-03-05T15:30:08.542Z,42.90
2023-03-05T15:40:44.572Z,42.80
2023-03-05T15:47:09.440Z,43.30
2023-03-05T15:49:37.563Z,43.40
2023-03-05T15:55:53.900Z,43.60
2023-03-05T15:58:44.699Z,43.60
2023-03-05T16:01:25.720Z,43.50
2023-03-05T16:03:57.579Z,43.30
2023-03-05T16:06:28.271Z,43.40
2023-03-05T16:08:57.924Z,43.20
2023-03-05T16:11:34.379Z,43.10
2023-03-05T16:43:22.840Z,43.00
2023-03-05T16:45:52.556Z,42.80
2023-03-05T16:48:21.176Z,42.80
2023-03-05T16:51:02.308Z,42.80
2023-03-05T16:53:33.466Z,42.80
2023-03-05T16:56:10.162Z,42.80
2023-03-05T16:58:50.495Z,42.70
2023-03-05T17:01:21.481Z,42.70
2023-03-05T17:03:58.236Z,42.80
2023-03-05T17:09:25.206Z,42.70
2023-03-05T17:11:57.852Z,42.70
2023-03-05T17:14:38.003Z,42.70
2023-03-05T17:17:09.687Z,42.70
2023-03-05T17:19:45.938Z,42.60
2023-03-05T17:22:17.579Z,42.70
2023-03-05T17:25:34.005Z,42.60
2023-03-05T17:28:02.407Z,42.70
2023-03-05T17:30:37.235Z,42.60
2023-03-05T17:33:08.061Z,42.50
2023-03-05T17:35:39.982Z,42.50
2023-03-05T17:38:17.212Z,42.70
2023-03-05T17:40:45.387Z,42.60
2023-03-05T17:43:13.739Z,42.70
2023-03-05T17:45:43.523Z,42.60
2023-03-05T17:48:16.078Z,42.70
2023-03-05T17:50:47.503Z,42.80
2023-03-05T17:53:16.135Z,43.00
2023-03-05T17:55:51.845Z,43.00
2023-03-05T17:58:23.198Z,43.20
2023-03-05T18:00:52.776Z,43.60
2023-03-05T18:03:21.054Z,40.50
2023-03-05T18:05:49.451Z,40.80
2023-03-05T18:08:17.345Z,40.60
2023-03-05T18:10:45.678Z,40.70
2023-03-05T18:13:13.841Z,40.50
2023-03-05T18:15:48.011Z,41.20
2023-03-05T18:18:17.777Z,40.80
2023-03-05T18:20:46.278Z,40.70
2023-03-05T18:23:14.330Z,40.90
2023-03-05T18:25:42.799Z,40.80
2023-03-05T18:28:11.602Z,40.90
2023-03-05T18:30:40.783Z,40.80
2023-03-05T18:33:08.954Z,40.80
2023-03-05T18:35:38.423Z,41.40
2023-03-05T18:38:06.446Z,41.40
2023-03-05T18:40:37.547Z,41.30
2023-03-05T18:43:05.446Z,41.20
2023-03-05T18:45:34.239Z,41.40
2023-03-05T18:48:02.302Z,41.80
2023-03-05T18:50:30.414Z,42.50
2023-03-05T18:53:00.134Z,41.80
2023-03-05T18:55:29.807Z,42.10
2023-03-05T18:57:57.923Z,42.30
2023-03-05T19:00:29.043Z,42.60
2023-03-05T19:03:09.347Z,42.70
2023-03-05T19:05:37.344Z,42.60
2023-03-05T19:08:07.671Z,42.50
2023-03-05T19:10:37.089Z,42.60
2023-03-05T19:13:18.600Z,42.80
2023-03-05T19:15:46.711Z,42.90
2023-03-05T19:18:14.813Z,42.70
2023-03-05T19:20:43.236Z,43.30
2023-03-05T19:23:12.737Z,43.00
2023-03-05T19:25:42.000Z,42.80
2023-03-05T19:28:10.471Z,42.80
2023-03-05T19:30:38.993Z,42.80
2023-03-05T19:33:06.749Z,43.10
2023-03-05T19:35:34.610Z,43.10
2023-03-05T19:38:02.349Z,43.10
2023-03-05T19:40:31.581Z,43.00
2023-03-05T19:42:59.548Z,43.10
2023-03-05T19:45:27.824Z,42.90
2023-03-05T19:47:55.931Z,42.80
2023-03-05T19:50:24.166Z,43.00
2023-03-05T19:52:52.345Z,43.20
2023-03-05T19:55:20.536Z,43.20
2023-03-05T19:57:49.941Z,43.30
2023-03-05T20:00:18.607Z,43.10
2023-03-05T20:05:32.034Z,42.80
2023-03-05T20:08:06.363Z,43.10
2023-03-05T20:10:40.982Z,43.00
2023-03-05T20:13:15.774Z,42.80
2023-03-05T20:15:54.464Z,43.20
2023-03-05T20:18:23.442Z,42.80
2023-03-05T20:20:54.884Z,43.30
2023-03-05T20:23:25.983Z,42.70
2023-03-05T20:25:56.684Z,42.70
2023-03-05T20:28:28.444Z,43.10
2023-03-05T20:30:56.738Z,43.10
2023-03-05T20:33:31.147Z,43.00
2023-03-05T20:36:01.384Z,43.50
2023-03-05T20:38:30.413Z,43.60
2023-03-05T20:40:59.855Z,43.20
2023-03-05T20:43:43.996Z,43.50
2023-03-05T20:46:21.082Z,43.60
2023-03-05T20:48:49.715Z,43.20
2023-03-05T20:51:30.217Z,43.30
2023-03-05T20:53:59.438Z,43.40
2023-03-05T20:56:30.286Z,43.30
2023-03-05T20:59:00.179Z,43.40
2023-03-05T21:01:28.042Z,43.80
2023-03-05T21:03:57.097Z,43.90
2023-03-05T21:06:25.284Z,43.00
2023-03-05T21:08:53.679Z,43.30
2023-03-05T21:11:21.756Z,43.30
2023-03-05T21:13:49.755Z,43.30
2023-03-05T21:16:20.626Z,43.20
2023-03-05T21:18:48.824Z,43.20
2023-03-05T21:21:16.799Z,43.30
2023-03-05T21:23:44.792Z,43.20
2023-03-05T21:26:17.684Z,43.20
2023-03-05T21:28:46.328Z,42.80
2023-03-05T21:31:23.946Z,43.10
2023-03-05T21:33:53.422Z,43.30
2023-03-05T21:36:21.477Z,43.60
2023-03-05T21:38:49.669Z,43.60
2023-03-05T21:41:20.531Z,43.30
2023-03-05T21:43:48.617Z,43.60
2023-03-05T21:46:17.016Z,43.70
2023-03-05T21:48:45.014Z,43.50
2023-03-05T21:51:14.549Z,43.60
2023-03-05T21:53:42.518Z,43.60
2023-03-05T21:56:22.050Z,44.40
2023-03-05T21:58:50.351Z,43.60
2023-03-05T22:01:19.536Z,44.60
2023-03-05T22:03:48.267Z,43.70
2023-03-05T22:06:18.351Z,43.60
2023-03-05T22:08:47.647Z,43.50
2023-03-05T22:11:16.278Z,43.60
2023-03-05T22:13:47.986Z,43.30
2023-03-05T22:16:23.012Z,43.20
2023-03-05T22:18:50.994Z,43.70
2023-03-05T22:21:21.980Z,43.70
2023-03-05T22:23:50.277Z,43.60
2023-03-05T22:26:18.239Z,44.30
2023-03-05T22:28:46.565Z,44.50
2023-03-05T22:31:20.983Z,44.20
2023-03-05T22:33:49.637Z,43.90
2023-03-05T22:36:17.651Z,44.30
2023-03-05T22:38:49.877Z,44.30
2023-03-05T22:41:19.864Z,44.20
2023-03-05T22:43:48.671Z,44.20
2023-03-05T22:46:18.295Z,44.60
2023-03-05T22:48:51.588Z,44.50
2023-03-05T22:51:20.204Z,44.60
2023-03-05T22:53:49.771Z,46.20
2023-03-05T22:56:18.662Z,45.10
2023-03-05T22:58:46.652Z,45.80
2023-03-05T23:01:14.826Z,45.20
2023-03-05T23:03:43.245Z,45.10
2023-03-05T23:06:11.300Z,45.10
2023-03-05T23:08:39.284Z,45.40
2023-03-05T23:11:13.578Z,45.60
2023-03-05T23:13:41.945Z,46.20
2023-03-05T23:16:10.608Z,45.80
2023-03-05T23:18:38.621Z,45.70
2023-03-05T23:21:09.281Z,45.70
2023-03-05T23:23:37.061Z,45.90
2023-03-05T23:26:05.205Z,46.20
2023-03-05T23:28:34.293Z,46.50
2023-03-05T23:31:03.012Z,45.90
2023-03-05T23:33:30.846Z,45.80
2023-03-05T23:35:59.966Z,46.10
2023-03-05T23:38:30.492Z,45.90
2023-03-05T23:41:01.347Z,46.00
2023-03-05T23:43:29.546Z,45.20
2023-03-05T23:46:01.181Z,45.90
2023-03-05T23:48:34.206Z,45.80
2023-03-05T23:51:02.795Z,45.60
2023-03-05T23:53:32.896Z,45.40
2023-03-05T23:56:00.931Z,45.50
2023-03-05T23:58:29.369Z,45.10
